Time;durP1;ratioP1;P1;durP2;ratioP2;P2;SDS_P1;SDS_P2;PMS_P1;PMS_P2;Temp;Humidity;BMP_temperature;BMP_pressure;BME280_temperature;BME280_humidity;BME280_pressure;Samples;Min_cycle;Max_cycle;Signal;HPM_P1;HPM_P2
2023/10/05 00:01:45;;;;;;;5.63;1.38;;;13.60;99.90;;;;;;4231214;28;20050;-80
2023/10/05 00:03:47;;;;;;;6.30;1.90;;;13.60;99.90;;;;;;4230235;28;20100;-80
2023/10/05 00:05:49;;;;;;;6.13;1.30;;;13.60;99.90;;;;;;4231351;28;20472;-81
2023/10/05 00:07:50;;;;;;;6.82;2.85;;;13.60;99.90;;;;;;4230662;28;20084;-80
2023/10/05 00:09:51;;;;;;;10.05;1.45;;;13.60;99.90;;;;;;4230940;28;20047;-80
2023/10/05 00:11:55;;;;;;;13.52;2.13;;;13.70;99.90;;;;;;4231323;28;20568;-81
2023/10/05 00:13:58;;;;;;;9.10;1.58;;;13.60;99.90;;;;;;4230903;28;20047;-81
2023/10/05 00:15:59;;;;;;;6.68;1.60;;;13.70;99.90;;;;;;4231196;28;20518;-80
2023/10/05 00:17:59;;;;;;;4.63;1.30;;;13.70;99.90;;;;;;4230865;28;20093;-81
2023/10/05 00:20:00;;;;;;;8.45;2.35;;;13.60;99.90;;;;;;4212735;28;20059;-81
2023/10/05 00:22:01;;;;;;;9.18;1.95;;;13.60;99.90;;;;;;4230879;28;20478;-81
2023/10/05 00:24:06;;;;;;;9.75;1.40;;;13.60;99.90;;;;;;4231218;28;20096;-81
2023/10/05 00:26:08;;;;;;;9.13;1.40;;;13.70;99.90;;;;;;4196359;28;20051;-81
2023/10/05 00:28:10;;;;;;;5.28;1.10;;;13.70;99.90;;;;;;4230545;28;20515;-81
2023/10/05 00:30:16;;;;;;;7.57;1.50;;;13.60;99.90;;;;;;4231059;28;20507;-81
2023/10/05 00:32:33;;;;;;;5.85;1.60;;;13.60;99.90;;;;;;4230881;28;20048;-81
2023/10/05 00:34:35;;;;;;;11.52;1.23;;;13.60;99.90;;;;;;4212775;28;20078;-81
2023/10/05 00:36:39;;;;;;;9.32;1.80;;;13.60;99.90;;;;;;4230977;28;20067;-81
2023/10/05 00:38:40;;;;;;;8.43;2.00;;;13.60;99.90;;;;;;4230963;28;20040;-81
2023/10/05 00:40:57;;;;;;;8.25;1.70;;;13.60;99.90;;;;;;4230518;28;20043;-81
2023/10/05 00:43:07;;;;;;;8.40;1.20;;;13.60;99.90;;;;;;4230684;28;20139;-81
2023/10/05 00:45:11;;;;;;;5.57;1.25;;;13.60;99.90;;;;;;4212702;28;20059;-81
2023/10/05 00:47:13;;;;;;;7.10;1.30;;;13.60;99.90;;;;;;4230921;28;20044;-81
2023/10/05 00:49:19;;;;;;;7.22;2.05;;;13.60;99.90;;;;;;4230926;28;20477;-81
2023/10/05 00:51:26;;;;;;;11.90;1.80;;;13.60;99.90;;;;;;4230949;28;20122;-81
2023/10/05 00:53:29;;;;;;;4.50;1.50;;;13.60;99.90;;;;;;4230925;28;20046;-81
2023/10/05 00:55:31;;;;;;;9.68;1.73;;;13.50;99.90;;;;;;4230227;28;20047;-82
2023/10/05 00:57:33;;;;;;;8.68;2.38;;;13.60;99.90;;;;;;4229364;28;20056;-81
2023/10/05 00:59:38;;;;;;;10.48;2.05;;;13.50;99.90;;;;;;4224641;28;20044;-82
2023/10/05 01:02:04;;;;;;;7.20;1.95;;;13.50;99.90;;;;;;4213992;28;20423;-81
2023/10/05 01:06:21;;;;;;;6.25;1.65;;;13.50;99.90;;;;;;4230558;28;20059;-82
2023/10/05 01:08:23;;;;;;;4.63;1.48;;;13.50;99.90;;;;;;4230233;28;20050;-81
2023/10/05 01:12:36;;;;;;;6.90;1.30;;;13.50;99.90;;;;;;4230023;28;20043;-81
2023/10/05 01:14:50;;;;;;;8.13;1.63;;;13.50;99.90;;;;;;4230479;28;20099;-81
2023/10/05 01:16:54;;;;;;;7.93;2.28;;;13.50;99.90;;;;;;4233543;28;20509;-81
2023/10/05 01:18:54;;;;;;;10.25;1.50;;;13.40;99.90;;;;;;4233422;28;20035;-81
2023/10/05 01:20:57;;;;;;;8.55;2.03;;;13.40;99.90;;;;;;4233826;28;20381;-81
2023/10/05 01:23:01;;;;;;;12.32;3.78;;;13.40;99.90;;;;;;4215700;28;20170;-81
2023/10/05 01:25:04;;;;;;;5.78;1.33;;;13.40;99.90;;;;;;4215581;28;20048;-81
2023/10/05 01:27:05;;;;;;;10.07;2.35;;;13.40;99.90;;;;;;4233241;28;20118;-81
2023/10/05 01:29:06;;;;;;;7.82;1.55;;;13.40;99.90;;;;;;4227209;28;20075;-81
2023/10/05 01:31:15;;;;;;;9.50;1.85;;;13.60;99.90;;;;;;4233378;28;20118;-81
2023/10/05 01:33:17;;;;;;;8.27;1.90;;;13.40;99.90;;;;;;4233620;28;20115;-81
2023/10/05 01:35:18;;;;;;;10.05;1.90;;;13.40;99.90;;;;;;4233243;28;20403;-81
2023/10/05 01:37:22;;;;;;;10.90;2.13;;;13.40;99.90;;;;;;4233557;28;20151;-81
2023/10/05 01:39:25;;;;;;;12.85;2.47;;;13.40;99.90;;;;;;4233562;28;20365;-81
2023/10/05 01:41:27;;;;;;;7.60;1.50;;;13.40;99.90;;;;;;4215182;28;20496;-81
2023/10/05 01:43:29;;;;;;;8.93;2.05;;;13.40;99.90;;;;;;4233137;28;20437;-82
2023/10/05 01:45:30;;;;;;;16.45;3.28;;;13.30;99.90;;;;;;4233504;28;20391;-81
2023/10/05 01:47:34;;;;;;;8.85;1.70;;;13.40;99.90;;;;;;4215123;28;20032;-81
2023/10/05 01:49:35;;;;;;;12.52;1.85;;;13.40;99.90;;;;;;4231865;28;20043;-81
2023/10/05 01:51:36;;;;;;;12.98;1.90;;;13.40;99.90;;;;;;4233147;28;20050;-81
2023/10/05 01:53:37;;;;;;;13.02;2.30;;;13.40;99.90;;;;;;4233177;28;20081;-81
2023/10/05 01:55:39;;;;;;;5.45;1.48;;;13.40;99.90;;;;;;4232915;28;20500;-81
2023/10/05 01:57:42;;;;;;;14.43;2.33;;;13.40;99.90;;;;;;4233040;28;20040;-81
2023/10/05 01:59:43;;;;;;;7.38;1.35;;;13.40;99.90;;;;;;4198232;28;20641;-81
2023/10/05 02:01:45;;;;;;;9.82;1.58;;;13.40;99.90;;;;;;4233390;28;20063;-81
2023/10/05 02:03:49;;;;;;;11.75;2.63;;;13.40;99.90;;;;;;4233272;28;20548;-81
2023/10/05 02:05:58;;;;;;;8.10;2.13;;;13.40;99.90;;;;;;4233048;28;20036;-81
2023/10/05 02:07:59;;;;;;;12.02;2.67;;;13.40;99.90;;;;;;4232315;28;20131;-81
2023/10/05 02:09:59;;;;;;;10.85;2.08;;;13.40;99.90;;;;;;4215040;28;20511;-81
2023/10/05 02:12:02;;;;;;;5.53;1.95;;;13.50;99.90;;;;;;4232821;28;20051;-81
2023/10/05 02:14:04;;;;;;;10.25;2.55;;;13.50;99.90;;;;;;4233198;28;20051;-81
2023/10/05 02:16:12;;;;;;;9.50;2.40;;;13.60;99.90;;;;;;4233098;28;20368;-82
2023/10/05 02:18:22;;;;;;;9.32;2.15;;;13.60;99.90;;;;;;4214396;28;20437;-82
2023/10/05 02:22:33;;;;;;;8.77;2.08;;;13.70;99.90;;;;;;4232943;28;20393;-82
2023/10/05 02:24:35;;;;;;;7.65;1.80;;;13.70;99.90;;;;;;4232674;28;20051;-82
2023/10/05 02:26:36;;;;;;;11.63;2.88;;;13.70;99.90;;;;;;4232122;28;20048;-82
2023/10/05 02:28:39;;;;;;;6.28;2.10;;;13.80;99.90;;;;;;4197731;28;20051;-81
2023/10/05 02:30:40;;;;;;;14.15;1.98;;;13.80;99.90;;;;;;4232683;28;20077;-82
2023/10/05 02:32:43;;;;;;;14.15;2.80;;;13.90;99.90;;;;;;4232535;28;20071;-81
2023/10/05 02:35:04;;;;;;;10.13;1.90;;;13.80;99.90;;;;;;4232339;28;20035;-81
2023/10/05 02:37:07;;;;;;;6.85;1.40;;;13.90;99.90;;;;;;4214689;28;20036;-81
2023/10/05 02:39:08;;;;;;;11.88;2.30;;;13.90;99.90;;;;;;4231117;28;20435;-81
2023/10/05 02:41:10;;;;;;;7.80;1.90;;;13.90;99.90;;;;;;4232366;28;20044;-81
2023/10/05 02:43:14;;;;;;;7.25;1.40;;;13.90;99.90;;;;;;4214457;28;20148;-81
2023/10/05 02:45:17;;;;;;;12.63;2.50;;;13.90;99.90;;;;;;4232563;28;20377;-81
2023/10/05 02:47:23;;;;;;;10.82;2.00;;;13.90;99.90;;;;;;4214124;28;20169;-81
2023/10/05 02:49:24;;;;;;;11.88;1.98;;;13.90;99.90;;;;;;4232275;28;20040;-81
2023/10/05 02:51:27;;;;;;;8.05;1.73;;;13.90;99.90;;;;;;4232469;28;20039;-81
2023/10/05 02:53:28;;;;;;;10.43;1.98;;;13.90;99.90;;;;;;4232328;28;20051;-81
2023/10/05 02:55:35;;;;;;;9.48;2.72;;;13.80;99.90;;;;;;4231686;28;20062;-81
2023/10/05 02:57:39;;;;;;;12.07;2.47;;;13.80;99.90;;;;;;4232094;28;20039;-81
2023/10/05 02:59:41;;;;;;;8.35;2.15;;;13.80;99.90;;;;;;4226486;28;20477;-81
2023/10/05 03:01:45;;;;;;;12.63;2.33;;;13.80;99.90;;;;;;4215345;28;20104;-81
2023/10/05 03:03:47;;;;;;;9.93;1.80;;;13.80;99.90;;;;;;4215026;28;20441;-82
2023/10/05 03:05:48;;;;;;;12.65;2.03;;;13.80;99.90;;;;;;4215288;28;20048;-81
2023/10/05 03:07:49;;;;;;;10.50;2.97;;;13.80;99.90;;;;;;4215355;28;20042;-82
2023/10/05 03:09:52;;;;;;;12.18;1.70;;;13.70;99.90;;;;;;4215020;28;20097;-81
2023/10/05 03:11:54;;;;;;;14.73;2.40;;;13.70;99.90;;;;;;4215475;28;20052;-82
2023/10/05 03:13:58;;;;;;;11.50;1.60;;;13.70;99.90;;;;;;4215320;28;20154;-82
2023/10/05 03:16:03;;;;;;;16.45;3.30;;;13.80;99.90;;;;;;4214188;28;20048;-82
2023/10/05 03:18:06;;;;;;;10.48;1.90;;;13.80;99.90;;;;;;4214986;28;20052;-83
2023/10/05 03:20:15;;;;;;;8.00;2.47;;;13.90;99.90;;;;;;4214227;28;20033;-82
2023/10/05 03:22:16;;;;;;;;;;;13.90;99.90;;;;;;4214062;28;20507;-79
2023/10/05 03:24:19;;;;;;;6.20;1.45;;;14.00;99.90;;;;;;4215191;28;19999;-80
2023/10/05 03:26:20;;;;;;;10.40;2.17;;;14.00;99.90;;;;;;4215031;28;20487;-80
2023/10/05 03:28:23;;;;;;;8.00;2.08;;;14.00;99.90;;;;;;4196857;28;20040;-81
2023/10/05 03:30:30;;;;;;;13.05;1.90;;;14.10;99.90;;;;;;4201720;28;20070;-83
2023/10/05 03:32:31;;;;;;;10.40;2.13;;;14.10;99.90;;;;;;4225433;28;20276;-82
2023/10/05 03:34:32;;;;;;;9.10;1.75;;;14.10;99.90;;;;;;4231636;28;20051;-83
2023/10/05 03:36:33;;;;;;;7.60;1.75;;;14.20;99.90;;;;;;4231862;28;20491;-82
2023/10/05 03:38:35;;;;;;;14.75;1.88;;;14.20;99.90;;;;;;4196577;28;20052;-83
2023/10/05 03:40:35;;;;;;;14.73;3.22;;;14.30;99.90;;;;;;4224263;28;20039;-82
2023/10/05 03:42:36;;;;;;;10.85;2.67;;;14.30;99.90;;;;;;4220942;28;20404;-82
2023/10/05 03:44:37;;;;;;;15.02;3.67;;;14.30;99.90;;;;;;4231405;28;20048;-82
2023/10/05 03:46:46;;;;;;;16.65;2.22;;;14.30;99.90;;;;;;4231200;28;20400;-81
2023/10/05 03:48:48;;;;;;;9.38;2.15;;;14.30;99.90;;;;;;4231676;28;20047;-81
2023/10/05 03:50:49;;;;;;;8.38;2.15;;;14.30;99.90;;;;;;4231236;28;20480;-81
2023/10/05 03:52:50;;;;;;;8.05;1.60;;;14.30;99.90;;;;;;4231393;28;20043;-81
2023/10/05 03:54:52;;;;;;;12.35;2.17;;;14.30;99.90;;;;;;4231232;28;20400;-81
2023/10/05 03:57:11;;;;;;;9.38;2.25;;;14.30;99.90;;;;;;4231455;28;20051;-82
2023/10/05 03:59:12;;;;;;;10.45;1.98;;;14.30;99.90;;;;;;4231199;28;20043;-82
2023/10/05 04:01:17;;;;;;;11.15;1.88;;;14.30;99.90;;;;;;4231192;28;20042;-81
2023/10/05 04:03:21;;;;;;;9.38;1.90;;;14.30;99.90;;;;;;4231170;28;20047;-81
2023/10/05 04:05:23;;;;;;;9.90;2.28;;;14.20;99.90;;;;;;4231228;28;20039;-82
2023/10/05 04:07:23;;;;;;;12.60;2.42;;;14.20;99.90;;;;;;4230864;28;20055;-82
2023/10/05 04:09:28;;;;;;;12.55;2.63;;;14.20;99.90;;;;;;4213303;28;20048;-82
2023/10/05 04:11:33;;;;;;;11.52;2.08;;;14.20;99.90;;;;;;4231088;28;20055;-82
2023/10/05 04:13:35;;;;;;;9.55;2.03;;;14.10;99.90;;;;;;4231318;28;20402;-82
2023/10/05 04:15:39;;;;;;;9.93;1.70;;;14.20;99.90;;;;;;4213045;28;20547;-80
2023/10/05 04:17:40;;;;;;;14.32;1.90;;;14.20;99.90;;;;;;4229079;28;20466;-81
2023/10/05 04:19:41;;;;;;;4.78;1.80;;;14.20;99.90;;;;;;4230989;28;20040;-81
2023/10/05 04:21:42;;;;;;;9.93;2.53;;;14.20;99.90;;;;;;4231239;28;20040;-81
2023/10/05 04:23:45;;;;;;;15.15;2.00;;;14.00;99.90;;;;;;4216312;28;20047;-81
2023/10/05 04:25:55;;;;;;;11.40;2.33;;;14.20;99.90;;;;;;4232089;28;20046;-81
2023/10/05 04:27:57;;;;;;;8.05;1.63;;;13.90;99.90;;;;;;4248118;28;20046;-81
2023/10/05 04:29:59;;;;;;;10.93;2.45;;;14.10;99.90;;;;;;4232750;28;20051;-81
2023/10/05 04:31:59;;;;;;;10.63;1.48;;;14.10;99.90;;;;;;4212299;28;20056;-81
2023/10/05 04:34:04;;;;;;;17.10;2.10;;;14.10;99.90;;;;;;4231109;28;20389;-81
2023/10/05 04:36:05;;;;;;;11.80;2.00;;;14.10;99.90;;;;;;4229659;28;20397;-81
2023/10/05 04:38:06;;;;;;;7.80;1.70;;;14.10;99.90;;;;;;4230918;28;20055;-81
2023/10/05 04:40:10;;;;;;;11.48;1.98;;;14.10;99.90;;;;;;4226371;28;20480;-81
2023/10/05 04:42:11;;;;;;;9.35;1.58;;;14.10;99.90;;;;;;4218688;28;20039;-81
2023/10/05 04:44:12;;;;;;;7.05;2.15;;;14.10;99.90;;;;;;4231050;28;20408;-81
2023/10/05 04:46:17;;;;;;;19.80;2.47;;;14.10;99.90;;;;;;4230279;28;20404;-81
2023/10/05 04:48:19;;;;;;;12.07;1.50;;;14.00;99.90;;;;;;4212806;28;20040;-81
2023/10/05 04:50:19;;;;;;;12.45;2.28;;;14.10;99.90;;;;;;4196962;28;20079;-81
2023/10/05 04:52:23;;;;;;;6.88;2.25;;;14.00;99.90;;;;;;4234324;28;20119;-81
2023/10/05 04:54:31;;;;;;;15.45;2.20;;;14.00;99.90;;;;;;4216050;28;20039;-81
2023/10/05 04:56:40;;;;;;;9.40;2.10;;;14.00;99.90;;;;;;4215800;28;20075;-81
2023/10/05 04:58:53;;;;;;;5.95;1.70;;;14.10;99.90;;;;;;4215788;28;20491;-81
2023/10/05 05:01:15;;;;;;;13.55;1.90;;;14.10;99.90;;;;;;4233956;28;20043;-81
2023/10/05 05:03:32;;;;;;;12.27;2.80;;;13.90;99.90;;;;;;4233986;28;20092;-81
2023/10/05 05:07:52;;;;;;;14.38;3.78;;;14.10;99.90;;;;;;4233622;28;20047;-81
2023/10/05 05:09:55;;;;;;;17.60;2.95;;;14.10;99.90;;;;;;4233899;28;20484;-81
2023/10/05 05:12:09;;;;;;;16.38;2.92;;;14.10;99.90;;;;;;4234248;28;20403;-81
2023/10/05 05:14:12;;;;;;;13.73;2.85;;;14.10;99.90;;;;;;4234464;28;20043;-81
2023/10/05 05:16:16;;;;;;;13.07;1.92;;;14.10;99.90;;;;;;4234414;28;20054;-81
2023/10/05 05:18:17;;;;;;;15.75;1.90;;;14.10;99.90;;;;;;4234303;28;20039;-81
2023/10/05 05:20:19;;;;;;;11.70;2.47;;;14.10;99.90;;;;;;4233815;28;20480;-81
2023/10/05 05:22:20;;;;;;;16.33;2.33;;;14.10;99.90;;;;;;4234074;28;20072;-81
2023/10/05 05:24:20;;;;;;;15.55;2.53;;;14.10;99.90;;;;;;4233937;28;20085;-81
2023/10/05 05:26:22;;;;;;;10.55;1.83;;;14.10;99.90;;;;;;4233942;28;20039;-81
2023/10/05 05:28:23;;;;;;;13.63;2.60;;;14.10;99.90;;;;;;4233915;28;20110;-81
2023/10/05 05:30:24;;;;;;;14.00;1.90;;;14.10;99.90;;;;;;4234231;28;20092;-82
2023/10/05 05:32:25;;;;;;;13.25;2.20;;;14.20;99.90;;;;;;4235016;28;20055;-81
2023/10/05 05:34:26;;;;;;;10.10;2.15;;;14.20;99.90;;;;;;4233159;28;20391;-81
2023/10/05 05:36:27;;;;;;;14.73;2.70;;;14.20;99.90;;;;;;4233910;28;20058;-81
2023/10/05 05:38:28;;;;;;;10.52;2.17;;;14.20;99.90;;;;;;4233831;28;20047;-81
2023/10/05 05:40:29;;;;;;;10.30;2.33;;;14.20;99.90;;;;;;4233532;28;20123;-81
2023/10/05 05:42:31;;;;;;;14.50;1.77;;;14.20;99.90;;;;;;4228991;28;20039;-81
2023/10/05 05:44:34;;;;;;;15.23;1.98;;;14.20;99.90;;;;;;4215336;28;20808;-81
2023/10/05 05:46:35;;;;;;;12.65;2.20;;;14.20;99.90;;;;;;4211118;28;20160;-81
2023/10/05 05:48:36;;;;;;;14.07;1.98;;;14.20;99.90;;;;;;4233320;28;20040;-81
2023/10/05 05:50:39;;;;;;;10.05;2.20;;;14.20;99.90;;;;;;4233082;28;20055;-81
2023/10/05 05:52:39;;;;;;;11.93;2.00;;;14.20;99.90;;;;;;4215543;28;20479;-81
2023/10/05 05:54:46;;;;;;;10.43;2.72;;;14.20;99.90;;;;;;4233502;28;20054;-81
2023/10/05 05:56:47;;;;;;;16.60;3.45;;;14.20;99.90;;;;;;4233017;28;20039;-81
2023/10/05 05:58:50;;;;;;;11.18;2.92;;;14.20;99.90;;;;;;4233370;28;20126;-81
2023/10/05 06:00:52;;;;;;;15.25;2.80;;;14.20;99.90;;;;;;4232821;28;20059;-81
2023/10/05 06:02:53;;;;;;;18.00;3.65;;;14.30;99.90;;;;;;4210807;28;20044;-81
2023/10/05 06:04:54;;;;;;;15.23;2.45;;;14.30;99.90;;;;;;4230119;28;20036;-81
2023/10/05 06:06:55;;;;;;;10.55;1.92;;;14.30;99.90;;;;;;4232888;28;20809;-81
2023/10/05 06:09:07;;;;;;;15.65;3.00;;;14.40;99.90;;;;;;4232631;28;20437;-81
2023/10/05 06:11:08;;;;;;;19.20;2.85;;;14.40;99.90;;;;;;4214581;28;20056;-81
2023/10/05 06:13:12;;;;;;;11.65;2.17;;;14.40;99.90;;;;;;4232935;28;20039;-81
2023/10/05 06:15:13;;;;;;;11.05;2.47;;;14.50;99.90;;;;;;4232698;28;20097;-81
2023/10/05 06:17:14;;;;;;;18.13;2.58;;;14.50;99.90;;;;;;4232910;28;20119;-81
2023/10/05 06:19:15;;;;;;;13.00;2.10;;;14.50;99.90;;;;;;4232840;28;20050;-81
2023/10/05 06:21:16;;;;;;;11.90;2.45;;;14.50;99.90;;;;;;4232210;28;20053;-81
2023/10/05 06:23:16;;;;;;;13.63;2.70;;;14.50;99.90;;;;;;4228110;28;20484;-81
2023/10/05 06:25:18;;;;;;;9.32;2.17;;;14.60;99.90;;;;;;4232773;28;20093;-81
2023/10/05 06:27:19;;;;;;;15.30;2.35;;;14.60;99.90;;;;;;4214698;28;20036;-81
2023/10/05 06:29:20;;;;;;;11.65;2.38;;;14.60;99.90;;;;;;4232222;28;20082;-81
2023/10/05 06:31:22;;;;;;;14.13;3.78;;;14.60;99.90;;;;;;4232431;28;20046;-81
2023/10/05 06:33:22;;;;;;;11.88;2.63;;;14.60;99.90;;;;;;4232579;28;20440;-81
2023/10/05 06:35:23;;;;;;;15.93;3.13;;;14.60;99.90;;;;;;4232592;28;20050;-81
2023/10/05 06:37:25;;;;;;;10.65;2.10;;;14.60;99.90;;;;;;4232541;28;20028;-81
2023/10/05 06:39:30;;;;;;;10.70;3.22;;;14.70;99.90;;;;;;4214159;28;20055;-81
2023/10/05 06:41:31;;;;;;;11.05;2.05;;;14.70;99.90;;;;;;4227467;28;20503;-81
2023/10/05 06:43:35;;;;;;;12.20;2.00;;;14.70;99.90;;;;;;4232547;28;20050;-81
2023/10/05 06:45:36;;;;;;;12.68;2.45;;;14.70;99.90;;;;;;4232739;28;20035;-80
2023/10/05 06:47:37;;;;;;;17.83;1.95;;;14.70;99.90;;;;;;4228448;28;20039;-80
2023/10/05 06:49:38;;;;;;;12.60;2.28;;;14.70;99.90;;;;;;4215552;28;20437;-80
2023/10/05 06:51:43;;;;;;;11.43;2.45;;;14.70;99.90;;;;;;4215345;28;20063;-80
2023/10/05 06:53:44;;;;;;;17.25;2.25;;;14.80;99.90;;;;;;4215000;28;20043;-80
2023/10/05 06:55:44;;;;;;;9.13;1.85;;;14.80;99.90;;;;;;4215459;28;20040;-80
2023/10/05 06:57:45;;;;;;;12.70;2.17;;;14.80;99.90;;;;;;4215504;28;20040;-80
2023/10/05 06:59:46;;;;;;;10.88;2.38;;;14.80;99.90;;;;;;4215306;28;20036;-80
2023/10/05 07:01:47;;;;;;;11.13;2.53;;;14.80;99.90;;;;;;4215415;28;20048;-80
2023/10/05 07:03:57;;;;;;;9.90;2.45;;;14.80;99.90;;;;;;4215190;28;20559;-80
2023/10/05 07:05:59;;;;;;;5.80;1.65;;;14.90;99.90;;;;;;4214973;28;20847;-80
2023/10/05 07:08:00;;;;;;;14.88;2.30;;;14.90;99.90;;;;;;4215589;28;20438;-81
2023/10/05 07:10:03;;;;;;;10.45;1.95;;;14.90;99.90;;;;;;4214999;28;20048;-81
2023/10/05 07:12:04;;;;;;;11.32;3.28;;;14.90;99.90;;;;;;4215242;28;20090;-81
2023/10/05 07:14:05;;;;;;;14.18;2.33;;;15.00;99.90;;;;;;4196627;28;20052;-81
2023/10/05 07:16:06;;;;;;;9.73;2.08;;;15.00;99.90;;;;;;4215019;28;20628;-80
2023/10/05 07:18:06;;;;;;;7.45;1.70;;;15.00;99.90;;;;;;4197313;28;20101;-80
2023/10/05 07:20:16;;;;;;;11.65;1.95;;;15.00;99.90;;;;;;4215103;28;20046;-80
2023/10/05 07:22:17;;;;;;;14.35;2.90;;;15.10;99.90;;;;;;4197815;28;20048;-80
2023/10/05 07:24:18;;;;;;;13.77;2.22;;;15.10;99.90;;;;;;4231735;28;20080;-80
2023/10/05 07:26:19;;;;;;;12.73;1.88;;;15.10;99.90;;;;;;4231821;28;20043;-80
2023/10/05 07:28:19;;;;;;;9.32;2.40;;;15.20;99.90;;;;;;4231569;28;20061;-80
2023/10/05 07:30:20;;;;;;;15.70;2.28;;;15.20;99.90;;;;;;4230212;28;20474;-80
2023/10/05 07:32:21;;;;;;;15.82;1.83;;;15.20;99.90;;;;;;4231696;28;20047;-80
2023/10/05 07:34:22;;;;;;;14.70;2.28;;;15.20;99.90;;;;;;4231393;28;20040;-80
2023/10/05 07:36:23;;;;;;;12.45;2.88;;;15.30;99.90;;;;;;4231701;28;20068;-80
2023/10/05 07:38:26;;;;;;;12.30;2.38;;;15.30;99.90;;;;;;4231644;28;20043;-80
2023/10/05 07:40:27;;;;;;;9.80;1.80;;;15.30;99.90;;;;;;4231442;28;20148;-80
2023/10/05 07:42:28;;;;;;;9.52;2.10;;;15.30;99.90;;;;;;4231546;28;20062;-80
2023/10/05 07:44:29;;;;;;;7.57;1.50;;;15.20;99.90;;;;;;4231758;28;20085;-80
2023/10/05 07:46:30;;;;;;;7.50;2.15;;;15.30;99.90;;;;;;4232063;28;20480;-80
2023/10/05 07:48:31;;;;;;;10.63;1.90;;;15.30;99.90;;;;;;4232197;28;20043;-81
2023/10/05 07:50:32;;;;;;;10.70;2.30;;;15.20;99.90;;;;;;4231967;28;20064;-81
2023/10/05 07:52:33;;;;;;;10.90;1.67;;;15.20;99.90;;;;;;4231555;28;20070;-81
2023/10/05 07:54:34;;;;;;;9.77;2.13;;;15.20;99.90;;;;;;4231770;28;20043;-81
2023/10/05 07:56:35;;;;;;;8.68;2.42;;;15.20;99.90;;;;;;4230860;28;20044;-81
2023/10/05 07:58:36;;;;;;;14.18;1.55;;;15.10;99.90;;;;;;4231285;28;20055;-81
2023/10/05 08:00:37;;;;;;;6.97;1.55;;;15.10;99.90;;;;;;4231579;28;20484;-81
2023/10/05 08:02:38;;;;;;;12.00;1.92;;;15.00;99.90;;;;;;4231523;28;20501;-81
2023/10/05 08:04:46;;;;;;;11.52;1.83;;;15.00;99.90;;;;;;4231589;28;20618;-80
2023/10/05 08:06:47;;;;;;;6.75;1.63;;;15.00;99.90;;;;;;4229741;28;20112;-81
2023/10/05 08:08:48;;;;;;;13.23;3.30;;;14.90;99.90;;;;;;4231277;28;20039;-79
2023/10/05 08:10:48;;;;;;;9.60;1.73;;;14.90;99.90;;;;;;4231172;28;20042;-79
2023/10/05 08:12:49;;;;;;;5.47;1.77;;;14.80;99.90;;;;;;4212963;28;20051;-78
2023/10/05 08:14:50;;;;;;;9.50;2.08;;;14.80;99.90;;;;;;4230886;28;20492;-79
2023/10/05 08:16:51;;;;;;;11.10;1.85;;;14.80;99.90;;;;;;4230608;28;20376;-80
2023/10/05 08:18:52;;;;;;;12.93;2.00;;;14.80;99.90;;;;;;4231139;28;20543;-79
2023/10/05 08:20:53;;;;;;;9.85;1.50;;;14.70;99.90;;;;;;4212635;28;20059;-79
2023/10/05 08:22:56;;;;;;;11.68;1.80;;;14.80;99.90;;;;;;4212256;28;20051;-78
2023/10/05 08:25:00;;;;;;;7.70;1.70;;;14.70;99.90;;;;;;4213202;28;20056;-78
2023/10/05 08:27:00;;;;;;;7.53;1.77;;;14.70;99.90;;;;;;4213709;28;20036;-79
2023/10/05 08:29:01;;;;;;;9.80;1.70;;;14.70;99.90;;;;;;4229204;28;20055;-79
2023/10/05 08:31:07;;;;;;;9.15;2.30;;;14.70;99.90;;;;;;4230642;28;20052;-78
2023/10/05 08:33:15;;;;;;;11.00;2.10;;;14.80;99.90;;;;;;4211702;28;20167;-78
2023/10/05 08:35:17;;;;;;;7.90;2.00;;;14.80;99.90;;;;;;4230414;28;20506;-79
2023/10/05 08:37:22;;;;;;;9.00;2.17;;;14.80;99.90;;;;;;4230554;28;20083;-78
2023/10/05 08:39:26;;;;;;;12.77;1.95;;;14.80;99.90;;;;;;4211772;28;20044;-79
2023/10/05 08:41:31;;;;;;;9.45;2.65;;;14.80;99.90;;;;;;4230549;28;20056;-79
2023/10/05 08:43:32;;;;;;;10.02;1.63;;;14.80;99.90;;;;;;4212735;28;20124;-78
2023/10/05 08:45:47;;;;;;;16.80;2.03;;;14.80;99.90;;;;;;4230409;28;20399;-78
2023/10/05 08:47:53;;;;;;;10.32;2.17;;;14.80;99.90;;;;;;4229788;28;20716;-79
2023/10/05 08:49:54;;;;;;;8.32;2.38;;;14.80;99.90;;;;;;4229812;28;20539;-79
2023/10/05 08:51:56;;;;;;;12.27;1.92;;;14.80;99.90;;;;;;4230453;28;20098;-79
2023/10/05 08:54:02;;;;;;;8.18;2.58;;;14.80;99.90;;;;;;4212495;28;20032;-79
2023/10/05 08:56:03;;;;;;;11.73;1.88;;;14.80;99.90;;;;;;4212619;28;20044;-79
2023/10/05 08:58:04;;;;;;;12.70;3.35;;;14.90;99.90;;;;;;4230089;28;20035;-79
2023/10/05 09:00:07;;;;;;;13.02;3.03;;;14.90;99.90;;;;;;4231099;28;20488;-80
2023/10/05 09:02:09;;;;;;;12.82;2.83;;;15.00;99.90;;;;;;4213544;28;20047;-80
2023/10/05 09:04:11;;;;;;;8.82;2.22;;;15.10;99.90;;;;;;4212392;28;20036;-80
2023/10/05 09:06:21;;;;;;;9.32;1.88;;;15.00;99.90;;;;;;4230691;28;20375;-80
2023/10/05 09:08:22;;;;;;;11.20;2.65;;;15.20;99.90;;;;;;4224981;28;20044;-80
2023/10/05 09:10:26;;;;;;;11.00;2.38;;;15.40;99.90;;;;;;4229193;28;20487;-81
2023/10/05 09:12:35;;;;;;;10.63;2.53;;;15.60;99.90;;;;;;4230876;28;20058;-80
2023/10/05 09:14:38;;;;;;;12.57;2.42;;;15.80;99.90;;;;;;4224634;28;20047;-80
2023/10/05 09:16:47;;;;;;;14.40;2.88;;;16.00;99.90;;;;;;4195733;28;20044;-80
2023/10/05 09:18:49;;;;;;;13.80;2.60;;;16.20;99.90;;;;;;4213460;28;20036;-80
2023/10/05 09:20:51;;;;;;;10.95;2.47;;;16.20;99.90;;;;;;4213798;28;20048;-80
2023/10/05 09:22:55;;;;;;;13.43;2.25;;;16.10;99.90;;;;;;4213441;28;20089;-80
2023/10/05 09:24:58;;;;;;;14.18;2.42;;;16.00;99.90;;;;;;4213581;28;20412;-81
2023/10/05 09:27:33;;;;;;;9.30;2.15;;;15.90;99.90;;;;;;4195439;28;20037;-80
2023/10/05 09:29:28;;;;;;;9.02;1.63;;;15.90;99.90;;;;;;4211315;28;20055;-80
2023/10/05 09:31:41;;;;;;;8.18;2.22;;;15.80;99.90;;;;;;4213055;28;20052;-81
2023/10/05 09:33:53;;;;;;;12.27;1.92;;;15.70;99.90;;;;;;4213577;28;20741;-81
2023/10/05 09:36:01;;;;;;;9.82;1.85;;;15.80;99.90;;;;;;4214162;28;20400;-81
2023/10/05 09:38:07;;;;;;;3.30;1.98;;;15.80;99.90;;;;;;4198647;28;20059;-81
2023/10/05 09:40:15;;;;;;;7.45;1.95;;;15.80;99.90;;;;;;4216682;28;20441;-81
2023/10/05 09:42:24;;;;;;;5.05;1.42;;;15.90;99.90;;;;;;4216744;28;20036;-81
2023/10/05 09:44:28;;;;;;;6.70;1.80;;;16.00;99.90;;;;;;4216138;28;20158;-81
2023/10/05 09:46:33;;;;;;;5.95;1.98;;;16.20;99.90;;;;;;4198519;28;20047;-81
2023/10/05 09:48:37;;;;;;;7.53;1.25;;;16.50;99.90;;;;;;4216256;28;20044;-81
2023/10/05 09:50:40;;;;;;;12.63;2.60;;;16.90;99.90;;;;;;4198763;28;20581;-84
2023/10/05 09:52:46;;;;;;;6.90;1.50;;;17.20;99.90;;;;;;4198772;28;20466;-84
2023/10/05 09:54:47;;;;;;;7.40;2.08;;;17.30;99.90;;;;;;4216225;28;20131;-84
2023/10/05 09:56:49;;;;;;;8.27;1.73;;;17.40;99.90;;;;;;4216104;28;20373;-84
2023/10/05 09:58:53;;;;;;;5.35;1.70;;;17.60;99.90;;;;;;4198243;28;20870;-84
2023/10/05 10:00:55;;;;;;;7.85;2.40;;;17.60;99.90;;;;;;4216140;28;20032;-84
2023/10/05 10:03:01;;;;;;;9.82;2.47;;;17.50;99.90;;;;;;4219424;28;20051;-84
2023/10/05 10:05:25;;;;;;;5.43;2.33;;;17.40;99.90;;;;;;4238035;28;20122;-83
2023/10/05 10:07:32;;;;;;;8.55;2.30;;;17.40;99.90;;;;;;4235405;28;20040;-83
2023/10/05 10:09:33;;;;;;;9.05;1.88;;;17.50;99.90;;;;;;4235322;28;20104;-84
2023/10/05 10:11:35;;;;;;;7.35;1.80;;;17.50;99.90;;;;;;4232967;28;20044;-84
2023/10/05 10:13:39;;;;;;;9.30;2.40;;;17.50;99.90;;;;;;4214997;28;20490;-84
2023/10/05 10:15:45;;;;;;;6.70;2.05;;;17.40;99.90;;;;;;4215057;28;20043;-84
2023/10/05 10:17:53;;;;;;;7.80;2.35;;;17.40;99.90;;;;;;4232819;28;20058;-84
2023/10/05 10:20:35;;;;;;;10.50;2.67;;;17.40;99.90;;;;;;4232756;28;20064;-82
2023/10/05 10:22:50;;;;;;;10.23;2.13;;;17.40;99.90;;;;;;4221738;28;20129;-82
2023/10/05 10:24:56;;;;;;;9.80;2.40;;;17.50;99.90;;;;;;4232715;28;20122;-82
2023/10/05 10:27:08;;;;;;;7.45;1.75;;;17.60;99.90;;;;;;4232338;28;20058;-82
2023/10/05 10:29:16;;;;;;;8.80;1.83;;;17.60;99.90;;;;;;4232417;28;20040;-82
2023/10/05 10:31:25;;;;;;;12.40;2.17;;;17.60;99.90;;;;;;4232694;28;20122;-82
2023/10/05 10:33:30;;;;;;;8.45;1.50;;;17.40;99.90;;;;;;4232373;28;20040;-82
2023/10/05 10:35:33;;;;;;;12.18;2.00;;;17.50;99.90;;;;;;4232814;28;20039;-82
2023/10/05 10:37:44;;;;;;;7.80;2.15;;;17.50;99.90;;;;;;4234470;27;20032;-82
2023/10/05 10:39:49;;;;;;;6.47;1.55;;;17.50;99.90;;;;;;4249485;27;20776;-82
2023/10/05 10:42:19;;;;;;;9.23;2.15;;;17.60;99.90;;;;;;4249505;27;20031;-82
2023/10/05 10:44:22;;;;;;;13.25;2.58;;;17.80;99.90;;;;;;4235461;27;20487;-82
2023/10/05 10:46:30;;;;;;;5.30;1.75;;;17.80;99.90;;;;;;4230025;28;20051;-83
2023/10/05 10:48:36;;;;;;;8.85;1.63;;;17.90;99.90;;;;;;4215192;28;20028;-82